Latest Weather Observations for Mornington Island Airport

IDQ60801

Issued at 2:32 pm EST Wednesday 26 July 2017 (issued every 30 minutes, with the page automatically refreshed every 10 minutes)

About weather observations | Map of weather stations | Latest weather observations for QLD | Other Formats
Station Details ID: 029182 Name: MORNINGTON ISLAND AIRPORT Lat: -16.66 Lon: 139.17 Height: 9.52 m
Data from the previous 72 hours. | See also: Recent months at Mornington Island Airport
Date/Time
EST
Temp
°C
App
Temp
°C
Dew
Point
°C
Rel
Hum
%
Delta-T
°C
Wind Press
QNH
hPa
Press
MSL
hPa
Rain since
9am
mm
Dir  Spd
km/h
Gust
km/h
Spd
kts
Gust
kts
26/02:30pm 27.9 27.5 16.2 49 7.2 SSE 13 19 7 10 1015.5 1015.4 0.0
26/02:00pm 28.4 28.2 17.6 52 6.8 ESE 15 20 8 11 1015.9 1015.8 0.0
26/01:30pm 29.5 29.1 18.0 50 7.3 ESE 17 24 9 13 1016.0 1015.9 0.0
26/01:00pm 28.8 27.0 16.0 45 7.9 E 20 28 11 15 1016.4 1016.3 0.0
26/12:30pm 29.3 27.7 16.5 46 8.0 E 20 28 11 15 1016.8 1016.7 0.0
26/12:00pm 29.1 27.5 16.0 45 8.1 ENE 19 28 10 15 1017.1 1017.0 0.0
26/11:30am 28.8 27.3 16.4 47 7.7 ENE 19 28 10 15 1017.3 1017.2 0.0
26/11:00am 27.9 26.3 16.5 50 7.1 NE 20 35 11 19 1017.5 1017.4 0.0
26/10:30am 27.7 26.5 18.4 57 5.9 ENE 22 30 12 16 1017.5 1017.4 0.0
26/10:00am 26.9 25.7 19.3 63 4.9 ENE 24 32 13 17 1017.5 1017.4 0.0
26/09:30am 26.3 25.7 18.9 63 4.7 E 20 32 11 17 1017.5 1017.4 0.0
26/08:30am 23.6 22.0 16.4 64 4.4 ESE 20 32 11 17 1016.9 1016.8 0.0
26/08:00am 22.3 21.7 16.6 70 3.5 ESE 15 19 8 10 1016.5 1016.4 0.0
26/07:30am 21.8 21.5 16.5 72 3.2 SE 13 19 7 10 1016.3 1016.2 0.0
26/07:00am 20.7 20.9 16.7 78 2.4 SSE 11 17 6 9 1016.0 1015.9 0.0
26/06:30am 19.9 21.0 17.1 84 1.7 SSE 7 11 4 6 1015.7 1015.6 0.0
26/06:00am 19.9 21.1 18.2 90 1.1 SSE 9 13 5 7 1015.6 1015.5 0.0
26/05:30am 20.0 21.5 18.8 93 0.8 SSE 9 15 5 8 1015.4 1015.3 0.0
26/05:00am 19.8 21.4 19.1 96 0.4 SSE 9 15 5 8 1015.4 1015.3 0.0
26/04:30am 19.4 21.1 18.6 95 0.5 ESE 7 9 4 5 1015.4 1015.3 0.0
26/04:00am 19.6 21.5 18.9 96 0.4 S 7 9 4 5 1015.2 1015.1 0.0
26/03:30am 19.5 21.3 18.8 96 0.4 SSE 7 9 4 5 1015.2 1015.1 0.0
26/03:00am 19.0 20.4 17.8 93 0.7 SE 7 9 4 5 1015.3 1015.2 0.0
26/02:30am 19.3 20.8 18.1 93 0.7 S 7 7 4 4 1015.5 1015.4 0.0
26/02:00am 19.5 21.3 18.3 93 0.7 SSW 6 9 3 5 1015.7 1015.6 0.0
26/01:30am 18.8 20.1 17.6 93 0.7 S 7 9 4 5 1015.8 1015.7 0.0
26/01:00am 18.6 20.7 17.3 92 0.8 SSW 2 7 1 4 1016.0 1015.9 0.0
26/12:30am 18.6 19.9 17.1 91 0.9 SSW 6 9 3 5 1016.1 1016.0 0.0
26/12:00am 19.1 21.6 17.2 89 1.2 CALM 0 0 0 0 1016.1 1016.0 0.0
 
Date/Time
EST
Temp
°C
App
Temp
°C
Dew
Point
°C
Rel
Hum
%
Delta-T
°C
Wind Press
QNH
hPa
Press
MSL
hPa
Rain since
9am
mm
Dir  Spd
km/h
Gust
km/h
Spd
kts
Gust
kts
25/11:30pm 19.3 21.4 17.3 88 1.2 WSW 2 6 1 3 1016.4 1016.3 0.0
25/11:00pm 19.7 22.4 17.7 88 1.2 CALM 0 0 0 0 1016.5 1016.4 0.0
25/10:30pm 20.0 22.4 18.0 88 1.2 WSW 2 6 1 3 1016.5 1016.4 0.0
25/10:00pm 20.3 23.3 18.4 89 1.2 CALM 0 0 0 0 1016.6 1016.5 0.0
25/09:30pm 20.7 23.7 18.5 87 1.4 CALM 0 0 0 0 1016.6 1016.5 0.0
25/09:00pm 21.2 24.3 18.6 85 1.6 CALM 0 0 0 0 1016.4 1016.3 0.0
25/08:30pm 21.5 24.0 17.3 77 2.6 CALM 0 0 0 0 1016.3 1016.2 0.0
25/08:00pm 22.0 24.3 16.7 72 3.2 CALM 0 0 0 0 1016.1 1016.0 0.0
25/07:30pm 22.7 24.7 16.9 70 3.6 ENE 2 6 1 3 1015.7 1015.6 0.0
25/07:00pm 23.4 25.2 18.7 75 3.0 ESE 7 9 4 5 1015.7 1015.6 0.0
25/06:30pm 23.7 25.0 18.4 72 3.3 SSE 9 13 5 7 1015.5 1015.4 0.0
25/06:00pm 24.5 26.9 20.0 76 2.9 WSW 7 11 4 6 1015.3 1015.2 0.0
25/05:30pm 25.2 27.4 20.5 75 3.1 WSW 9 13 5 7 1015.2 1015.1 0.0
25/05:00pm 25.6 27.0 20.4 73 3.4 W 13 17 7 9 1015.1 1015.0 0.0
25/04:30pm 25.9 27.1 20.0 70 3.8 W 13 19 7 10 1014.9 1014.8 0.0
25/04:00pm 26.3 27.8 19.7 67 4.3 W 11 19 6 10 1014.7 1014.6 0.0
25/03:30pm 28.3 28.7 19.0 57 6.0 NNW 15 20 8 11 1014.4 1014.3 0.0
25/03:00pm 28.1 28.0 18.8 57 6.0 N 17 24 9 13 1014.4 1014.3 0.0
25/02:30pm 27.7 26.9 18.1 56 6.1 N 19 24 10 13 1014.7 1014.6 0.0
25/02:00pm 28.9 28.5 18.1 52 6.9 NE 17 32 9 17 1014.8 1014.7 0.0
25/01:30pm 29.2 28.9 18.3 51 7.0 NNE 17 28 9 15 1015.1 1015.0 0.0
25/01:00pm 29.2 28.5 18.3 51 7.0 NNE 19 26 10 14 1015.5 1015.4 0.0
25/12:30pm 29.1 28.6 19.1 54 6.5 NNE 20 32 11 17 1015.9 1015.8 0.0
25/12:00pm 28.1 27.8 19.6 60 5.5 NE 20 30 11 16 1016.3 1016.2 0.0
25/11:30am 29.0 29.0 20.2 59 5.8 NE 20 28 11 15 1016.4 1016.3 0.0
25/11:00am 28.4 28.3 19.9 60 5.6 NE 20 28 11 15 1016.6 1016.5 0.0
25/10:30am 27.6 27.6 18.9 59 5.6 ENE 17 22 9 12 1016.8 1016.7 0.0
25/10:00am 26.8 26.6 18.6 60 5.2 E 17 24 9 13 1016.9 1016.8 0.0
25/09:30am 25.7 25.3 18.1 63 4.8 ESE 17 24 9 13 1016.8 1016.7 0.0
25/09:00am 23.9 22.6 16.9 65 4.3 SE 19 24 10 13 1017.0 1016.9 0.0
25/08:30am 23.1 21.9 16.2 65 4.2 SE 17 24 9 13 1016.6 1016.5 0.0
25/08:00am 21.7 22.0 17.1 75 2.8 SSE 11 15 6 8 1016.1 1016.0 0.0
25/07:30am 20.5 20.6 16.5 78 2.4 SSE 11 15 6 8 1015.9 1015.8 0.0
25/07:00am 19.7 20.3 16.7 83 1.8 SSE 9 13 5 7 1015.7 1015.6 0.0
25/06:30am 19.7 20.4 17.1 85 1.6 S 9 13 5 7 1015.2 1015.1 0.0
25/06:00am 19.9 21.6 18.4 91 0.9 SSW 7 11 4 6 1015.1 1015.0 0.0
25/05:30am 20.6 22.5 19.8 95 0.5 SW 9 13 5 7 1014.9 1014.8 0.0
25/05:00am 20.4 22.6 19.6 95 0.5 SW 7 11 4 6 1014.6 1014.5 0.0
25/04:30am 20.5 22.5 20.0 97 0.3 SW 9 11 5 6 1014.5 1014.4 0.0
25/04:00am 20.4 22.9 19.9 97 0.3 SW 6 9 3 5 1014.6 1014.5 0.0
25/03:30am 20.6 23.1 20.3 98 0.2 SSW 7 9 4 5 1014.8 1014.7 0.0
25/03:00am 19.5 21.6 19.0 97 0.3 S 6 7 3 4 1014.8 1014.7 0.0
25/02:30am 19.6 22.1 19.1 97 0.3 SSW 4 6 2 3 1014.9 1014.8 0.0
25/02:00am 19.0 20.6 17.8 93 0.7 SSW 6 7 3 4 1015.0 1014.9 0.0
25/01:30am 20.8 23.0 20.3 97 0.3 SW 9 11 5 6 1015.2 1015.1 0.0
25/01:00am 19.1 20.6 18.1 94 0.6 SW 7 9 4 5 1015.4 1015.3 0.0
25/12:30am 19.0 21.7 17.8 93 0.7 CALM 0 0 0 0 1015.3 1015.2 0.0
25/12:00am 19.2 21.9 17.7 91 0.9 CALM 0 0 0 0 1015.4 1015.3 0.0
 
Date/Time
EST
Temp
°C
App
Temp
°C
Dew
Point
°C
Rel
Hum
%
Delta-T
°C
Wind Press
QNH
hPa
Press
MSL
hPa
Rain since
9am
mm
Dir  Spd
km/h
Gust
km/h
Spd
kts
Gust
kts
24/11:30pm 19.5 22.0 17.3 87 1.3 CALM 0 0 0 0 1015.6 1015.5 0.0
24/11:00pm 19.7 21.3 17.8 89 1.2 E 6 6 3 3 1015.7 1015.6 0.0
24/10:30pm 19.9 22.2 17.7 87 1.4 E 2 6 1 3 1015.8 1015.7 0.0
24/10:00pm 20.5 22.7 18.4 88 1.3 E 4 6 2 3 1015.7 1015.6 0.0
24/09:30pm 20.6 22.4 18.4 87 1.4 E 6 7 3 4 1015.6 1015.5 0.0
24/09:00pm 20.8 22.5 18.4 86 1.5 E 7 9 4 5 1015.4 1015.3 0.0
24/08:30pm 21.2 22.8 18.2 83 1.9 E 7 9 4 5 1015.3 1015.2 0.0
24/08:00pm 22.1 23.9 18.7 81 2.1 ENE 7 9 4 5 1015.2 1015.1 0.0
24/07:30pm 22.6 24.1 18.8 79 2.4 NE 9 11 5 6 1015.0 1014.9 0.0
24/07:00pm 22.7 24.4 19.3 81 2.2 ESE 9 11 5 6 1014.9 1014.8 0.0
24/06:30pm 23.0 24.5 19.0 78 2.5 SE 9 11 5 6 1014.6 1014.5 0.0
24/06:00pm 23.4 24.3 18.5 74 3.1 SSE 11 15 6 8 1014.3 1014.2 0.0
24/05:30pm 24.0 24.9 18.4 71 3.5 SSE 11 17 6 9 1014.0 1013.9 0.0
24/05:00pm 24.5 24.7 17.7 66 4.2 SSE 13 15 7 8 1013.8 1013.7 0.0
24/04:30pm 24.9 25.1 17.6 64 4.6 SSE 13 17 7 9 1013.6 1013.5 0.0
24/04:00pm 25.2 25.0 17.7 63 4.7 SE 15 20 8 11 1013.6 1013.5 0.0
24/03:30pm 25.3 25.3 17.2 61 5.0 S 13 20 7 11 1013.7 1013.6 0.0
24/03:00pm 25.6 24.9 17.3 60 5.2 SSE 17 26 9 14 1013.5 1013.4 0.0
24/02:30pm 25.8 24.8 16.6 56 5.7 SSE 17 26 9 14 1013.8 1013.7 0.0
24/02:00pm 26.6 26.1 16.8 55 6.1 SSE 15 22 8 12 1014.3 1014.2 0.0
24/01:30pm 26.0 24.7 15.7 53 6.3 SE 17 24 9 13 1014.8 1014.7 0.0
24/01:00pm 26.1 24.2 15.8 53 6.3 SE 20 30 11 16 1015.1 1015.0 0.0
24/12:30pm 25.7 23.1 14.8 51 6.5 SE 22 28 12 15 1015.6 1015.5 0.0
24/12:00pm 26.1 23.6 14.2 48 7.1 SE 20 30 11 16 1016.1 1016.0 0.0
24/11:30am 25.9 23.2 13.4 46 7.3 SE 20 30 11 16 1016.5 1016.4 0.0
24/11:00am 25.3 22.5 14.4 50 6.5 SE 22 32 12 17 1016.8 1016.7 0.0
24/10:30am 25.5 23.9 16.4 57 5.6 SE 20 30 11 16 1017.1 1017.0 0.0
24/10:00am 25.3 22.9 15.3 54 6.0 SE 22 32 12 17 1017.2 1017.1 0.0
24/09:30am 24.9 22.2 15.5 56 5.7 SE 24 33 13 18 1017.1 1017.0 0.0
24/09:00am 24.0 22.0 15.5 59 5.1 SE 20 32 11 17 1017.0 1016.9 0.0
24/08:30am 23.0 21.4 15.1 61 4.7 SE 17 24 9 13 1016.7 1016.6 0.0
24/08:00am 22.0 19.7 14.1 61 4.6 SE 19 26 10 14 1016.5 1016.4 0.0
24/07:30am 21.9 19.8 13.5 59 4.8 SE 17 26 9 14 1016.1 1016.0 0.0
24/07:00am 21.3 20.1 14.0 63 4.2 SSE 13 20 7 11 1015.6 1015.5 0.0
24/06:30am 20.3 19.3 13.5 65 3.9 SE 11 17 6 9 1015.3 1015.2 0.0
24/06:00am 19.6 19.0 13.5 68 3.5 SSE 9 13 5 7 1015.0 1014.9 0.0
24/05:30am 19.6 19.1 12.6 64 3.9 S 7 11 4 6 1014.9 1014.8 0.0
24/05:00am 20.0 19.4 12.3 61 4.3 S 7 11 4 6 1014.6 1014.5 0.0
24/04:30am 19.7 20.1 14.7 73 2.9 SSW 6 9 3 5 1014.6 1014.5 0.0
24/04:00am 20.4 21.3 16.6 79 2.3 SW 7 11 4 6 1014.5 1014.4 0.0
24/03:30am 20.4 20.4 13.6 65 3.9 S 6 9 3 5 1014.5 1014.4 0.0
24/03:00am 18.9 18.2 11.5 62 4.1 SSW 6 7 3 4 1014.4 1014.3 0.0
24/02:30am 19.1 18.3 10.9 59 4.5 SSW 6 9 3 5 1014.6 1014.5 0.0
24/02:00am 18.4 17.8 11.7 65 3.7 S 6 6 3 3 1014.8 1014.7 0.0
24/01:30am 18.1 17.1 11.0 63 3.8 SSE 7 9 4 5 1014.8 1014.7 0.0
24/01:00am 18.7 17.6 10.8 60 4.3 ESE 7 7 4 4 1015.0 1014.9 0.0
24/12:30am 18.6 17.4 10.4 59 4.4 ESE 7 7 4 4 1015.1 1015.0 0.0
24/12:00am 18.9 17.8 10.7 59 4.4 ESE 7 7 4 4 1015.2 1015.1 0.0
 
Date/Time
EST
Temp
°C
App
Temp
°C
Dew
Point
°C
Rel
Hum
%
Delta-T
°C
Wind Press
QNH
hPa
Press
MSL
hPa
Rain since
9am
mm
Dir  Spd
km/h
Gust
km/h
Spd
kts
Gust
kts
23/11:30pm 18.9 17.8 10.5 58 4.5 E 7 7 4 4 1015.3 1015.2 0.0
23/11:00pm 19.1 17.9 9.6 54 5.0 ENE 6 7 3 4 1015.5 1015.4 0.0
23/10:30pm 19.8 18.4 9.4 51 5.5 ENE 7 9 4 5 1015.7 1015.6 0.0
23/10:00pm 20.0 18.5 9.3 50 5.7 NE 7 7 4 4 1015.7 1015.6 0.0
23/09:30pm 20.4 18.9 9.3 49 5.9 NE 7 9 4 5 1015.8 1015.7 0.0
23/09:00pm 20.3 18.8 9.2 49 5.9 NE 7 9 4 5 1015.5 1015.4 0.0
23/08:30pm 21.0 19.4 8.9 46 6.4 NE 7 9 4 5 1015.3 1015.2 0.0
23/08:00pm 21.6 19.2 8.8 44 6.8 NE 11 11 6 6 1015.0 1014.9 0.0
23/07:30pm 22.0 20.0 8.5 42 7.1 NE 9 11 5 6 1014.8 1014.7 0.0
23/07:00pm 23.1 21.2 7.6 37 8.1 ENE 7 9 4 5 1014.5 1014.4 0.0
23/06:30pm 24.4 21.5 6.6 32 9.2 E 11 13 6 7 1014.3 1014.2 0.0
23/06:00pm 25.1 21.7 5.8 29 9.9 ESE 13 17 7 9 1014.3 1014.2 0.0
23/05:30pm 25.4 22.1 6.6 30 9.8 SE 13 19 7 10 1014.0 1013.9 0.0
23/05:00pm 26.0 22.5 7.1 30 10.0 SE 15 20 8 11 1014.0 1013.9 0.0
23/04:30pm 26.6 22.9 8.1 31 10.0 ESE 17 22 9 12 1013.9 1013.8 0.0
23/04:00pm 26.4 22.2 7.4 30 10.1 SE 19 24 10 13 1014.0 1013.9 0.0
23/03:30pm 26.5 23.3 9.8 35 9.2 SE 17 26 9 14 1014.1 1014.0 0.0
23/03:00pm 25.8 22.8 10.8 39 8.4 SE 17 26 9 14 1014.4 1014.3 0.0

Other Formats:

Comma delimited format used in spreadsheet applications
http://www.bom.gov.au/fwo/IDQ60801/IDQ60801.94254.axf

JavaScript Object Notation format (JSON) in row-major order
http://www.bom.gov.au/fwo/IDQ60801/IDQ60801.94254.json